createdAt,value
2017-12-15T00:00:02.574Z,4.14
2017-12-15T00:00:06.834Z,4.06
2017-12-15T00:00:10.880Z,4.17
2017-12-15T00:00:15.230Z,4.11
2017-12-15T00:00:19.461Z,4.14
2017-12-15T00:00:23.603Z,4.07
2017-12-15T00:00:27.721Z,4.16
2017-12-15T00:00:32.068Z,4.14
2017-12-15T00:00:36.200Z,4.11
2017-12-15T00:00:40.244Z,4.18
2017-12-15T00:00:44.395Z,4.16
2017-12-15T00:00:48.755Z,4.11
2017-12-15T00:00:53.106Z,4.13
2017-12-15T00:00:57.461Z,4.11
2017-12-15T00:01:01.890Z,4.16
2017-12-15T00:01:06.231Z,4.14
2017-12-15T00:01:10.357Z,4.14
2017-12-15T00:01:14.588Z,4.13
2017-12-15T00:01:18.943Z,4.08
2017-12-15T00:01:23.309Z,4.14
2017-12-15T00:01:27.540Z,4.16
2017-12-15T00:01:31.674Z,4.14
2017-12-15T00:01:35.719Z,4.16
2017-12-15T00:01:39.963Z,4.11
2017-12-15T00:01:44.311Z,4.14
2017-12-15T00:01:48.540Z,4.14
2017-12-15T00:01:52.780Z,4.14
2017-12-15T00:01:57.136Z,4.13
2017-12-15T00:02:01.503Z,4.13
2017-12-15T00:02:05.635Z,4.14
2017-12-15T00:02:09.980Z,4.14
2017-12-15T00:02:14.225Z,4.18
2017-12-15T00:02:18.419Z,4.17
2017-12-15T00:02:22.733Z,4.17
2017-12-15T00:02:26.976Z,4.17
2017-12-15T00:02:31.102Z,4.17
2017-12-15T00:02:35.352Z,4.13
2017-12-15T00:02:39.703Z,4.1
2017-12-15T00:02:43.850Z,4.14
2017-12-15T00:02:47.983Z,4.13
2017-12-15T00:02:52.229Z,4.17
2017-12-15T00:02:56.467Z,4.17
2017-12-15T00:03:00.700Z,4.14
2017-12-15T00:03:04.865Z,4.13
2017-12-15T00:03:08.898Z,4.13
2017-12-15T00:03:13.249Z,4.17
2017-12-15T00:03:17.495Z,4.16
2017-12-15T00:03:21.527Z,4.16
2017-12-15T00:03:25.871Z,4.14
2017-12-15T00:03:30.120Z,4.13
2017-12-15T00:03:34.361Z,4.13
2017-12-15T00:03:38.608Z,4.16
2017-12-15T00:03:42.740Z,4.17
2017-12-15T00:03:46.961Z,4.14
2017-12-15T00:03:51.198Z,4.1
2017-12-15T00:03:55.435Z,4.08
2017-12-15T00:03:59.805Z,4.13
2017-12-15T00:04:04.161Z,4.14
2017-12-15T00:04:08.500Z,4.1
2017-12-15T00:04:12.856Z,4.11
2017-12-15T00:04:17.205Z,4.13
2017-12-15T00:04:21.566Z,4.08
2017-12-15T00:04:25.819Z,4.11
2017-12-15T00:04:29.954Z,4.04
2017-12-15T00:04:34.190Z,4.08
2017-12-15T00:04:38.548Z,4.13
2017-12-15T00:04:42.626Z,4.13
2017-12-15T00:04:46.983Z,4.11
2017-12-15T00:04:51.135Z,4.16
2017-12-15T00:04:55.264Z,4.1
2017-12-15T00:04:59.522Z,4.13
2017-12-15T00:05:03.865Z,4.14
2017-12-15T00:05:07.920Z,4.17
2017-12-15T00:05:12.276Z,4.13
2017-12-15T00:05:16.303Z,4.16
2017-12-15T00:05:20.542Z,4.11
2017-12-15T00:05:24.763Z,4.11
2017-12-15T00:05:28.999Z,4.1
2017-12-15T00:05:33.028Z,4.1
2017-12-15T00:05:37.167Z,4.1
2017-12-15T00:05:41.409Z,4.13
2017-12-15T00:05:45.541Z,4.07
2017-12-15T00:05:49.788Z,4.14
2017-12-15T00:05:54.030Z,4.06
2017-12-15T00:05:58.370Z,4.11
2017-12-15T00:06:02.608Z,4.07
2017-12-15T00:06:06.748Z,4.11
2017-12-15T00:06:11.096Z,4.13
2017-12-15T00:06:15.327Z,4.1
2017-12-15T00:06:19.669Z,4.1
2017-12-15T00:06:23.807Z,4
2017-12-15T00:06:28.148Z,4.11
2017-12-15T00:06:32.382Z,3.99
2017-12-15T00:06:36.719Z,4.13
2017-12-15T00:06:40.848Z,4.11
2017-12-15T00:06:45.076Z,4.06
2017-12-15T00:06:49.211Z,4.1
2017-12-15T00:06:53.557Z,4.13
2017-12-15T00:06:57.910Z,4.16
2017-12-15T00:07:02.266Z,4.13
2017-12-15T00:07:06.610Z,4.14
2017-12-15T00:07:10.758Z,4.04
2017-12-15T00:07:14.794Z,4.02
2017-12-15T00:07:19.104Z,4.11
2017-12-15T00:07:23.447Z,4.14
2017-12-15T00:07:27.803Z,4.13
2017-12-15T00:07:32.154Z,4.11
2017-12-15T00:07:36.089Z,4.13
2017-12-15T00:07:40.332Z,4.11
2017-12-15T00:07:44.346Z,4.06
2017-12-15T00:07:48.584Z,4.11
2017-12-15T00:07:52.977Z,3.99
2017-12-15T00:07:57.220Z,4.02
2017-12-15T00:08:01.578Z,4.04
2017-12-15T00:08:05.610Z,4.11
2017-12-15T00:08:09.746Z,4.14
2017-12-15T00:08:14.095Z,4.14
2017-12-15T00:08:18.445Z,4.1
2017-12-15T00:08:22.794Z,4.1
2017-12-15T00:08:27.130Z,4.02
2017-12-15T00:08:31.384Z,3.99
2017-12-15T00:08:35.513Z,4
2017-12-15T00:08:39.550Z,3.96
2017-12-15T00:08:43.672Z,4.04
2017-12-15T00:08:48.013Z,4.02
2017-12-15T00:08:52.364Z,4.1
2017-12-15T00:08:56.497Z,4.02
2017-12-15T00:09:00.856Z,3.96
2017-12-15T00:09:05.303Z,4.07
2017-12-15T00:09:09.439Z,4.04
2017-12-15T00:09:13.578Z,3.99
2017-12-15T00:09:17.821Z,4.06
2017-12-15T00:09:22.064Z,4.02
2017-12-15T00:09:26.415Z,3.99
2017-12-15T00:09:30.776Z,3.96
2017-12-15T00:09:35.018Z,3.99
2017-12-15T00:09:39.033Z,4.02
2017-12-15T00:09:43.376Z,4
2017-12-15T00:09:47.513Z,3.95
2017-12-15T00:09:51.758Z,4.07
2017-12-15T00:09:55.988Z,4.1
2017-12-15T00:10:00.328Z,4.11
2017-12-15T00:10:04.716Z,4.07
2017-12-15T00:10:09.067Z,4.04
2017-12-15T00:10:13.313Z,4
2017-12-15T00:10:17.544Z,4.08
2017-12-15T00:10:21.683Z,4.06
2017-12-15T00:10:25.931Z,4
2017-12-15T00:10:30.171Z,4.13
2017-12-15T00:10:34.415Z,4.04
2017-12-15T00:10:38.645Z,4.1
2017-12-15T00:10:42.996Z,4.02
2017-12-15T00:10:47.230Z,4.07
2017-12-15T00:10:51.364Z,3.99
2017-12-15T00:10:55.799Z,4.08
2017-12-15T00:10:59.833Z,3.96
2017-12-15T00:11:04.066Z,4.07
2017-12-15T00:11:08.428Z,4.06
2017-12-15T00:11:12.659Z,4.02
2017-12-15T00:11:17.001Z,4.04
2017-12-15T00:11:21.222Z,4.04
2017-12-15T00:11:25.456Z,4.02
2017-12-15T00:11:29.690Z,3.99
2017-12-15T00:11:33.943Z,4.07
2017-12-15T00:11:38.167Z,4.06
2017-12-15T00:11:42.408Z,3.95
2017-12-15T00:11:46.661Z,3.99
2017-12-15T00:11:50.916Z,4.02
2017-12-15T00:11:55.042Z,4.02
2017-12-15T00:11:59.389Z,3.98
2017-12-15T00:12:03.731Z,3.98
2017-12-15T00:12:07.929Z,4.04
2017-12-15T00:12:12.275Z,3.99
2017-12-15T00:12:16.522Z,4.08
2017-12-15T00:12:20.881Z,3.99
2017-12-15T00:12:25.131Z,4.04
2017-12-15T00:12:29.156Z,4.07
2017-12-15T00:12:33.513Z,4.02
2017-12-15T00:12:37.964Z,4.04
2017-12-15T00:12:42.111Z,4
2017-12-15T00:12:46.031Z,4.07
2017-12-15T00:12:50.266Z,4.06
2017-12-15T00:12:54.620Z,3.99
2017-12-15T00:12:58.755Z,3.99
2017-12-15T00:13:03.005Z,4.06
2017-12-15T00:13:07.261Z,3.98
2017-12-15T00:13:11.388Z,4.04
2017-12-15T00:13:15.524Z,4.07
2017-12-15T00:13:19.865Z,4.04
2017-12-15T00:13:24.221Z,4.1
2017-12-15T00:13:28.388Z,3.96
2017-12-15T00:13:32.640Z,4.08
2017-12-15T00:13:36.866Z,4.06
2017-12-15T00:13:40.996Z,4.07
2017-12-15T00:13:45.010Z,4.04
2017-12-15T00:13:49.363Z,4
2017-12-15T00:13:53.603Z,4.08
2017-12-15T00:13:57.829Z,4.07
2017-12-15T00:14:02.064Z,4.07
2017-12-15T00:14:06.203Z,4
2017-12-15T00:14:10.337Z,4.04
2017-12-15T00:14:14.684Z,4.02
2017-12-15T00:14:18.906Z,4.06
2017-12-15T00:14:22.946Z,3.98
2017-12-15T00:14:27.086Z,4.04
2017-12-15T00:14:31.231Z,4.02
2017-12-15T00:14:35.588Z,4.1
2017-12-15T00:14:39.840Z,4.08
2017-12-15T00:14:44.094Z,3.98
2017-12-15T00:14:48.137Z,4.06
2017-12-15T00:14:52.478Z,3.99
2017-12-15T00:14:56.832Z,3.99
2017-12-15T00:15:01.086Z,4.04
2017-12-15T00:15:05.120Z,3.99
2017-12-15T00:15:09.365Z,4.07
2017-12-15T00:15:13.629Z,4.07
2017-12-15T00:15:17.764Z,4
2017-12-15T00:15:22.001Z,4.04
2017-12-15T00:15:26.364Z,4.06
2017-12-15T00:15:30.597Z,4
2017-12-15T00:15:34.844Z,3.98
2017-12-15T00:15:39.207Z,3.99
2017-12-15T00:15:43.336Z,4.02
2017-12-15T00:15:47.458Z,4.06
2017-12-15T00:15:51.709Z,4.02
2017-12-15T00:15:56.060Z,4
2017-12-15T00:16:00.420Z,3.96
2017-12-15T00:16:04.572Z,4
2017-12-15T00:16:08.702Z,3.99
2017-12-15T00:16:13.060Z,3.96
2017-12-15T00:16:17.406Z,4
2017-12-15T00:16:21.762Z,3.98
2017-12-15T00:16:26.007Z,3.99
2017-12-15T00:16:30.154Z,3.95
2017-12-15T00:16:34.183Z,3.99
2017-12-15T00:16:38.406Z,3.96
2017-12-15T00:16:42.646Z,4
2017-12-15T00:16:46.907Z,3.95
2017-12-15T00:16:51.041Z,3.96
2017-12-15T00:16:55.282Z,4
2017-12-15T00:16:59.641Z,3.99
2017-12-15T00:17:03.910Z,4.02
2017-12-15T00:17:08.050Z,4
2017-12-15T00:17:12.191Z,3.98
2017-12-15T00:17:16.219Z,3.93
2017-12-15T00:17:20.451Z,3.92
2017-12-15T00:17:24.789Z,3.99
2017-12-15T00:17:29.021Z,3.95
2017-12-15T00:17:33.372Z,3.98
2017-12-15T00:17:37.492Z,3.9
2017-12-15T00:18:17.990Z,4
2017-12-15T00:18:22.227Z,3.98
2017-12-15T00:18:26.480Z,3.92
2017-12-15T00:18:30.715Z,3.98
2017-12-15T00:18:34.957Z,4.02
2017-12-15T00:18:38.997Z,3.99
2017-12-15T00:18:43.024Z,3.95
2017-12-15T00:18:47.170Z,3.96
2017-12-15T00:18:51.523Z,3.92
2017-12-15T00:18:55.875Z,3.96
2017-12-15T00:19:00.116Z,3.96
2017-12-15T00:19:04.405Z,4.04
2017-12-15T00:19:08.639Z,3.96
2017-12-15T00:19:12.768Z,3.99
2017-12-15T00:19:17.119Z,3.98
2017-12-15T00:19:21.242Z,4
2017-12-15T00:19:25.589Z,3.96
2017-12-15T00:19:29.735Z,4
2017-12-15T00:19:33.874Z,3.96
2017-12-15T00:19:38.279Z,4.02
2017-12-15T00:19:42.308Z,4.02
2017-12-15T00:19:46.445Z,3.95
2017-12-15T00:19:50.669Z,3.99
2017-12-15T00:19:55.015Z,4.06
2017-12-15T00:19:59.370Z,3.96
2017-12-15T00:20:03.863Z,4
2017-12-15T00:20:08.116Z,4
2017-12-15T00:20:12.481Z,3.98
2017-12-15T00:20:16.606Z,3.92
2017-12-15T00:20:20.744Z,3.98
2017-12-15T00:20:24.986Z,3.93
2017-12-15T00:20:29.221Z,3.98
2017-12-15T00:20:33.342Z,3.92
2017-12-15T00:20:37.760Z,3.95
2017-12-15T00:20:42.100Z,3.98
2017-12-15T00:20:46.345Z,3.99
2017-12-15T00:20:50.584Z,3.99
2017-12-15T00:20:54.828Z,3.99
2017-12-15T00:20:59.180Z,3.9
2017-12-15T00:21:03.430Z,3.95
2017-12-15T00:21:07.572Z,4.02
2017-12-15T00:21:11.879Z,4
2017-12-15T00:21:16.245Z,3.98
2017-12-15T00:21:20.585Z,3.98
2017-12-15T00:21:24.717Z,3.98
2017-12-15T00:21:29.072Z,3.92
2017-12-15T00:21:33.187Z,3.98
2017-12-15T00:21:37.432Z,3.99
2017-12-15T00:21:41.666Z,3.96
2017-12-15T00:21:46.028Z,3.99
2017-12-15T00:21:50.175Z,3.89
2017-12-15T00:21:54.528Z,3.93
2017-12-15T00:21:58.877Z,3.99
2017-12-15T00:22:03.131Z,3.98
2017-12-15T00:22:07.368Z,3.98
2017-12-15T00:22:11.730Z,3.93
2017-12-15T00:22:15.882Z,3.96
2017-12-15T00:22:20.231Z,4.02
2017-12-15T00:22:24.561Z,4
2017-12-15T00:22:28.780Z,3.96
2017-12-15T00:22:33.025Z,3.95
2017-12-15T00:22:37.264Z,3.96
2017-12-15T00:22:41.501Z,3.93
2017-12-15T00:22:45.794Z,3.93
2017-12-15T00:22:50.025Z,3.99
2017-12-15T00:22:54.397Z,3.96
2017-12-15T00:22:58.632Z,3.96
2017-12-15T00:23:02.866Z,4.04
2017-12-15T00:23:07.006Z,3.95
2017-12-15T00:23:11.155Z,4.02
2017-12-15T00:23:15.380Z,3.99
2017-12-15T00:23:19.736Z,3.99
2017-12-15T00:23:24.100Z,4.02
2017-12-15T00:23:28.453Z,3.93
2017-12-15T00:23:32.598Z,3.98
2017-12-15T00:23:36.740Z,3.93
2017-12-15T00:23:40.763Z,3.99
2017-12-15T00:23:45.108Z,3.95
2017-12-15T00:23:49.343Z,3.93
2017-12-15T00:23:53.477Z,3.9
2017-12-15T00:23:57.818Z,3.98
2017-12-15T00:24:02.206Z,3.95
2017-12-15T00:24:06.354Z,3.95
2017-12-15T00:24:10.481Z,3.98
2017-12-15T00:24:14.709Z,3.96
2017-12-15T00:24:19.072Z,3.98
2017-12-15T00:24:23.215Z,3.96
2017-12-15T00:24:27.460Z,3.95
2017-12-15T00:24:31.693Z,3.93
2017-12-15T00:24:36.045Z,4
2017-12-15T00:24:40.288Z,3.96
2017-12-15T00:24:44.639Z,3.96
2017-12-15T00:24:48.889Z,3.93
2017-12-15T00:24:53.235Z,4
2017-12-15T00:24:57.485Z,3.93
2017-12-15T00:25:01.825Z,3.92
2017-12-15T00:25:05.808Z,3.95
2017-12-15T00:25:10.154Z,3.96
2017-12-15T00:25:14.405Z,3.98
2017-12-15T00:25:18.766Z,3.96
2017-12-15T00:25:22.904Z,3.96
2017-12-15T00:25:27.148Z,3.96
2017-12-15T00:25:31.508Z,4
2017-12-15T00:25:35.532Z,3.98
2017-12-15T00:25:39.874Z,3.92
2017-12-15T00:25:44.109Z,3.98
2017-12-15T00:25:48.372Z,3.98
2017-12-15T00:25:52.493Z,3.96
2017-12-15T00:25:56.830Z,3.95
2017-12-15T00:26:01.077Z,3.92
2017-12-15T00:26:05.455Z,3.98
2017-12-15T00:26:09.598Z,3.98
2017-12-15T00:26:13.940Z,4.02
2017-12-15T00:26:18.185Z,3.93
2017-12-15T00:26:22.588Z,3.98
2017-12-15T00:26:26.936Z,4
2017-12-15T00:26:31.298Z,3.96
2017-12-15T00:26:35.537Z,3.99
2017-12-15T00:26:39.881Z,3.95
2017-12-15T00:26:44.219Z,3.99
2017-12-15T00:26:48.466Z,4.06
2017-12-15T00:26:52.592Z,3.96
2017-12-15T00:26:56.943Z,3.96
2017-12-15T00:27:01.305Z,3.99
2017-12-15T00:27:05.446Z,3.93
2017-12-15T00:27:09.692Z,4.02
2017-12-15T00:27:13.913Z,4
2017-12-15T00:27:18.159Z,3.96
2017-12-15T00:27:22.521Z,4
2017-12-15T00:27:26.885Z,3.98
2017-12-15T00:27:31.007Z,3.99
2017-12-15T00:27:35.359Z,3.99
2017-12-15T00:27:39.604Z,3.98
2017-12-15T00:27:43.844Z,3.96
2017-12-15T00:27:48.200Z,3.99
2017-12-15T00:27:52.335Z,3.96
2017-12-15T00:27:56.359Z,3.98
2017-12-15T00:28:00.707Z,4.06
2017-12-15T00:28:05.065Z,3.96
2017-12-15T00:28:09.326Z,4.02
2017-12-15T00:28:13.666Z,3.99
2017-12-15T00:28:18.027Z,4.02
2017-12-15T00:28:22.061Z,3.95
2017-12-15T00:28:26.307Z,4
2017-12-15T00:28:30.355Z,4.02
2017-12-15T00:28:34.610Z,3.98
2017-12-15T00:28:38.875Z,4
2017-12-15T00:28:43.110Z,3.96
2017-12-15T00:28:47.255Z,3.98
2017-12-15T00:28:51.176Z,3.95
2017-12-15T00:28:55.426Z,3.93
2017-12-15T00:28:59.671Z,4.02
2017-12-15T00:29:03.920Z,3.95
2017-12-15T00:29:08.165Z,3.99
2017-12-15T00:29:12.512Z,3.95
2017-12-15T00:29:16.807Z,3.96
2017-12-15T00:29:21.152Z,3.98
2017-12-15T00:29:25.302Z,4
2017-12-15T00:29:29.536Z,3.92
2017-12-15T00:29:33.656Z,4.02
2017-12-15T00:29:37.793Z,3.96
2017-12-15T00:29:42.031Z,4.02
2017-12-15T00:29:46.377Z,3.95
2017-12-15T00:29:50.510Z,3.96
2017-12-15T00:29:54.756Z,3.99
2017-12-15T00:29:58.997Z,3.95
2017-12-15T00:30:03.140Z,3.98
2017-12-15T00:30:07.074Z,4.02
2017-12-15T00:30:11.441Z,3.99
2017-12-15T00:30:15.807Z,3.98
2017-12-15T00:30:19.933Z,3.98
2017-12-15T00:30:24.182Z,4
2017-12-15T00:30:28.546Z,3.99
2017-12-15T00:30:32.569Z,3.98
2017-12-15T00:30:36.924Z,3.9
2017-12-15T00:30:41.277Z,3.96
2017-12-15T00:30:45.616Z,4.02
2017-12-15T00:30:49.973Z,3.96
2017-12-15T00:30:54.318Z,3.96
2017-12-15T00:30:58.233Z,3.99
2017-12-15T00:31:02.696Z,3.99
2017-12-15T00:31:06.835Z,3.99
2017-12-15T00:31:11.173Z,4
2017-12-15T00:31:15.434Z,4.02
2017-12-15T00:31:19.800Z,3.96
2017-12-15T00:31:24.133Z,3.99
2017-12-15T00:31:28.267Z,4
2017-12-15T00:31:32.288Z,3.92
2017-12-15T00:31:36.543Z,3.99
2017-12-15T00:31:40.696Z,3.93
2017-12-15T00:31:44.952Z,3.98
2017-12-15T00:31:49.190Z,3.99
2017-12-15T00:31:53.526Z,3.92
2017-12-15T00:31:57.562Z,3.93
2017-12-15T00:32:01.680Z,3.99
2017-12-15T00:32:05.910Z,3.96
2017-12-15T00:32:10.152Z,3.99
2017-12-15T00:32:14.381Z,4.02
2017-12-15T00:32:18.625Z,3.98
2017-12-15T00:32:22.853Z,3.98
2017-12-15T00:32:27.106Z,3.98
2017-12-15T00:32:31.350Z,3.98
2017-12-15T00:32:35.585Z,3.99
2017-12-15T00:32:39.938Z,3.99
2017-12-15T00:32:44.071Z,3.98
2017-12-15T00:32:48.331Z,3.96
2017-12-15T00:32:52.688Z,3.96
2017-12-15T00:32:56.937Z,4.04
2017-12-15T00:33:01.295Z,3.98
2017-12-15T00:33:05.425Z,3.98
2017-12-15T00:33:09.664Z,4.04
2017-12-15T00:33:14.038Z,3.98
2017-12-15T00:33:18.067Z,3.96
2017-12-15T00:33:22.197Z,3.99
2017-12-15T00:33:26.335Z,4
2017-12-15T00:33:30.572Z,3.95
2017-12-15T00:33:34.709Z,4
2017-12-15T00:33:38.955Z,4.06
2017-12-15T00:33:43.309Z,3.99
2017-12-15T00:33:47.645Z,4.06
2017-12-15T00:33:51.683Z,4
2017-12-15T00:33:56.222Z,4.04
2017-12-15T00:34:00.469Z,4
2017-12-15T00:34:04.898Z,4.04
2017-12-15T00:34:08.930Z,3.99
2017-12-15T00:34:13.277Z,4.02
2017-12-15T00:34:17.631Z,3.96
2017-12-15T00:34:21.886Z,3.98
2017-12-15T00:34:26.130Z,4
2017-12-15T00:34:30.363Z,3.99
2017-12-15T00:34:34.613Z,4
2017-12-15T00:34:38.858Z,4.06
2017-12-15T00:34:43.219Z,3.95
2017-12-15T00:34:47.461Z,4.06
2017-12-15T00:34:51.813Z,3.96
2017-12-15T00:34:55.958Z,4.02
2017-12-15T00:35:00.105Z,4.08
2017-12-15T00:35:04.584Z,3.98
2017-12-15T00:35:08.719Z,4.06
2017-12-15T00:35:12.974Z,3.96
2017-12-15T00:35:17.156Z,4.04
2017-12-15T00:35:21.291Z,3.99
2017-12-15T00:35:25.429Z,4.02
2017-12-15T00:35:29.572Z,3.99
2017-12-15T00:35:33.905Z,3.98
2017-12-15T00:35:37.941Z,3.96
2017-12-15T00:35:42.079Z,4
2017-12-15T00:35:46.319Z,3.99
2017-12-15T00:35:50.440Z,4.04
2017-12-15T00:35:54.472Z,4.04
2017-12-15T00:35:58.623Z,4.04
2017-12-15T00:36:02.865Z,4.07
2017-12-15T00:36:07.247Z,3.96
2017-12-15T00:36:11.286Z,3.99
2017-12-15T00:36:15.647Z,3.99
2017-12-15T00:36:19.899Z,4.04
2017-12-15T00:36:24.159Z,4.02
2017-12-15T00:36:28.389Z,4.04
2017-12-15T00:36:32.727Z,4.06
2017-12-15T00:36:37.074Z,4.06
2017-12-15T00:36:41.417Z,4.02
2017-12-15T00:36:45.766Z,4.06
2017-12-15T00:36:49.918Z,4.1
2017-12-15T00:36:53.966Z,4.02
2017-12-15T00:36:58.322Z,3.99
2017-12-15T00:37:02.671Z,4.04
2017-12-15T00:37:06.915Z,4.04
2017-12-15T00:37:11.161Z,4.07
2017-12-15T00:37:15.308Z,4.06
2017-12-15T00:37:19.552Z,3.98
2017-12-15T00:37:23.793Z,4.06
2017-12-15T00:37:28.045Z,4.04
2017-12-15T00:37:32.390Z,4
2017-12-15T00:37:36.735Z,4.07
2017-12-15T00:37:40.872Z,4.06
2017-12-15T00:37:45.111Z,3.99
2017-12-15T00:37:49.456Z,4.02
2017-12-15T00:37:53.703Z,4
2017-12-15T00:37:58.042Z,4.06
2017-12-15T00:38:02.323Z,4.07
2017-12-15T00:38:06.345Z,4.04
2017-12-15T00:38:10.477Z,4.02
2017-12-15T00:38:14.829Z,4.06
2017-12-15T00:38:19.068Z,3.98
2017-12-15T00:38:23.424Z,4
2017-12-15T00:38:27.780Z,4.07
2017-12-15T00:38:31.918Z,4.04
2017-12-15T00:38:36.176Z,4.08
2017-12-15T00:38:40.465Z,4.02
2017-12-15T00:38:44.713Z,4.04
2017-12-15T00:38:48.959Z,4.02
2017-12-15T00:38:53.192Z,4.04
2017-12-15T00:38:57.430Z,3.98
2017-12-15T00:39:01.601Z,4.04
2017-12-15T00:39:05.678Z,4.02
2017-12-15T00:39:09.818Z,4.06
2017-12-15T00:39:14.061Z,4.02
2017-12-15T00:39:18.188Z,4.04
2017-12-15T00:39:22.228Z,4.07
2017-12-15T00:39:26.480Z,4.11
2017-12-15T00:39:30.829Z,3.98
2017-12-15T00:39:35.169Z,4.07
2017-12-15T00:39:39.317Z,3.99
2017-12-15T00:39:43.674Z,4.08
2017-12-15T00:39:47.829Z,4.11
2017-12-15T00:39:52.196Z,4.04
2017-12-15T00:39:56.496Z,4.04
2017-12-15T00:40:00.730Z,3.99
2017-12-15T00:40:05.149Z,3.99
2017-12-15T00:40:09.388Z,4.04
2017-12-15T00:40:13.519Z,3.99
2017-12-15T00:40:17.750Z,4.08
2017-12-15T00:40:21.867Z,4
2017-12-15T00:40:26.113Z,4.07
2017-12-15T00:40:30.259Z,4.04
2017-12-15T00:40:34.403Z,4.07
2017-12-15T00:40:38.630Z,4.02
2017-12-15T00:40:42.559Z,4.07
2017-12-15T00:40:46.697Z,4
2017-12-15T00:40:50.845Z,4.08
2017-12-15T00:40:55.192Z,4.06
2017-12-15T00:40:59.494Z,4
2017-12-15T00:41:03.669Z,3.96
2017-12-15T00:41:07.811Z,4.02
2017-12-15T00:41:11.741Z,4.02
2017-12-15T00:41:15.979Z,4.06
2017-12-15T00:41:20.310Z,4.02
2017-12-15T00:41:24.660Z,4.08
2017-12-15T00:41:28.734Z,4.04
2017-12-15T00:41:33.085Z,4.1
2017-12-15T00:41:37.336Z,4.17
2017-12-15T00:41:41.477Z,4.08
2017-12-15T00:41:45.680Z,4.13
2017-12-15T00:41:50.037Z,4.13
2017-12-15T00:41:54.176Z,4.1
2017-12-15T00:41:58.502Z,4.16
2017-12-15T00:42:02.523Z,4.02
2017-12-15T00:42:06.656Z,4.04
2017-12-15T00:42:10.799Z,4.13
2017-12-15T00:42:15.136Z,4.1
2017-12-15T00:42:19.377Z,4.07
2017-12-15T00:42:23.735Z,4.11
2017-12-15T00:42:27.993Z,4.08
2017-12-15T00:42:32.125Z,4.04
2017-12-15T00:42:36.163Z,4.1
2017-12-15T00:42:40.403Z,4.13
2017-12-15T00:42:44.588Z,4.16
2017-12-15T00:42:48.833Z,4.14
2017-12-15T00:42:52.753Z,4.14
2017-12-15T00:42:57.112Z,4.11
2017-12-15T00:43:01.349Z,4.16
2017-12-15T00:43:05.572Z,4.06
2017-12-15T00:43:09.690Z,4.14
2017-12-15T00:43:14.048Z,4.13
2017-12-15T00:43:18.395Z,4.13
2017-12-15T00:43:22.754Z,4.1
2017-12-15T00:43:27.120Z,4.16
2017-12-15T00:43:31.385Z,4.13
2017-12-15T00:43:35.727Z,4.13
2017-12-15T00:43:40.065Z,4.14
2017-12-15T00:43:44.199Z,4.13
2017-12-15T00:43:48.463Z,4.14
2017-12-15T00:43:52.710Z,4.11
2017-12-15T00:43:56.952Z,4.18
2017-12-15T00:44:01.297Z,4.13
2017-12-15T00:44:05.568Z,4.08
2017-12-15T00:44:09.589Z,4.18
2017-12-15T00:44:13.824Z,4.11
2017-12-15T00:44:18.177Z,4.16
2017-12-15T00:44:22.410Z,4.13
2017-12-15T00:44:26.770Z,4.16
2017-12-15T00:44:31.120Z,4.14
2017-12-15T00:44:35.366Z,4.14
2017-12-15T00:44:39.711Z,4.08
2017-12-15T00:44:44.059Z,4.07
2017-12-15T00:44:48.406Z,4.14
2017-12-15T00:44:52.662Z,4.17
2017-12-15T00:44:56.698Z,4.17
2017-12-15T00:45:01.031Z,4.17
2017-12-15T00:45:05.225Z,4.14
2017-12-15T00:45:09.248Z,4.14
2017-12-15T00:45:13.609Z,4.17
2017-12-15T00:45:17.834Z,4.2
2017-12-15T00:45:21.969Z,4.13
2017-12-15T00:45:26.219Z,4.14
2017-12-15T00:45:30.560Z,4.11
2017-12-15T00:45:34.804Z,4.13
2017-12-15T00:45:38.940Z,4.13
2017-12-15T00:45:43.177Z,4.1
2017-12-15T00:45:47.423Z,4.14
2017-12-15T00:45:51.778Z,4.18
2017-12-15T00:45:56.115Z,4.16
2017-12-15T00:46:00.357Z,4.16
2017-12-15T00:46:04.594Z,4.17
2017-12-15T00:46:08.742Z,4.08
2017-12-15T00:46:13.091Z,4.17
2017-12-15T00:46:17.322Z,4.11
2017-12-15T00:46:21.683Z,4.07
2017-12-15T00:46:25.935Z,4.2
2017-12-15T00:46:30.178Z,4.13
2017-12-15T00:46:34.414Z,4.14
2017-12-15T00:46:38.775Z,4.11
2017-12-15T00:46:42.903Z,4.16
2017-12-15T00:46:47.036Z,4.14
2017-12-15T00:46:51.391Z,4.11
2017-12-15T00:46:55.513Z,4.13
2017-12-15T00:46:59.870Z,4.18
2017-12-15T00:47:04.061Z,4.13
2017-12-15T00:47:08.298Z,4.1
2017-12-15T00:47:12.440Z,4.18
2017-12-15T00:47:16.576Z,4.11
2017-12-15T00:47:20.717Z,4.1
2017-12-15T00:47:24.959Z,4.18
2017-12-15T00:47:29.210Z,4.1
2017-12-15T00:47:33.555Z,4.11
2017-12-15T00:47:37.798Z,4.11
2017-12-15T00:47:42.045Z,4
2017-12-15T00:47:46.190Z,4.14
2017-12-15T00:47:50.545Z,4.11
2017-12-15T00:47:54.853Z,4.16
2017-12-15T00:47:59.211Z,4.16
2017-12-15T00:48:03.343Z,4.06
2017-12-15T00:48:07.478Z,4.07
2017-12-15T00:48:11.509Z,4.1
2017-12-15T00:48:15.907Z,4.16
2017-12-15T00:48:20.160Z,4.11
2017-12-15T00:48:24.403Z,4.11
2017-12-15T00:48:28.660Z,4.13
2017-12-15T00:48:32.911Z,4.1
2017-12-15T00:48:37.137Z,4.14
2017-12-15T00:48:41.375Z,4.13
2017-12-15T00:48:45.410Z,4.1
2017-12-15T00:48:49.650Z,4.11
2017-12-15T00:48:53.793Z,4.11
2017-12-15T00:48:58.030Z,4.11
2017-12-15T00:49:02.075Z,4.18
2017-12-15T00:49:06.200Z,4.17
2017-12-15T00:49:10.558Z,3.99
2017-12-15T00:49:14.693Z,4.1
2017-12-15T00:49:18.922Z,4.17
2017-12-15T00:49:23.156Z,4.13
2017-12-15T00:49:27.526Z,4.13
2017-12-15T00:49:31.670Z,4.1
2017-12-15T00:49:35.755Z,4.14
2017-12-15T00:49:40.101Z,3.99
2017-12-15T00:49:44.352Z,4.14
2017-12-15T00:49:48.474Z,4.18
2017-12-15T00:49:52.714Z,4.11
2017-12-15T00:49:56.953Z,4.13
2017-12-15T00:50:01.087Z,4.02
2017-12-15T00:50:05.543Z,4.06
2017-12-15T00:50:09.784Z,4.06
2017-12-15T00:50:14.127Z,4.14
2017-12-15T00:50:18.276Z,4.17
2017-12-15T00:50:22.514Z,4.08
2017-12-15T00:50:26.753Z,4.07
2017-12-15T00:50:30.867Z,4.07
2017-12-15T00:50:35.105Z,4.16
2017-12-15T00:50:39.362Z,4.16
2017-12-15T00:50:43.503Z,4.1
2017-12-15T00:50:47.752Z,4.14
2017-12-15T00:50:51.995Z,4.04
2017-12-15T00:50:56.122Z,3.96
2017-12-15T00:51:00.493Z,4.04
2017-12-15T00:51:04.729Z,4.08
2017-12-15T00:51:08.978Z,4.16
2017-12-15T00:51:13.130Z,4.14
2017-12-15T00:51:17.279Z,4.02
2017-12-15T00:51:21.624Z,4.14
2017-12-15T00:51:25.968Z,4
2017-12-15T00:51:30.084Z,3.99
2017-12-15T00:51:34.319Z,4.1
2017-12-15T00:51:38.726Z,4.1
2017-12-15T00:51:43.072Z,4.04
2017-12-15T00:51:47.414Z,4
2017-12-15T00:51:51.535Z,4.06
2017-12-15T00:51:55.875Z,3.96
2017-12-15T00:52:00.242Z,4
2017-12-15T00:52:04.492Z,4.02
2017-12-15T00:52:08.776Z,3.99
2017-12-15T00:52:12.929Z,4.06
2017-12-15T00:52:17.168Z,4.08
2017-12-15T00:52:21.400Z,4.06
2017-12-15T00:52:25.639Z,4
2017-12-15T00:52:29.889Z,4.07
2017-12-15T00:52:34.242Z,4.11
2017-12-15T00:52:38.493Z,4.02
2017-12-15T00:52:42.735Z,4
2017-12-15T00:52:46.976Z,4
2017-12-15T00:52:51.212Z,4.1
2017-12-15T00:52:55.603Z,4.1
2017-12-15T00:52:59.644Z,4.07
2017-12-15T00:53:03.773Z,4.04
2017-12-15T00:53:08.012Z,4.04
2017-12-15T00:53:12.126Z,3.99
2017-12-15T00:53:16.038Z,4.06
2017-12-15T00:53:20.386Z,4.02
2017-12-15T00:53:24.729Z,4
2017-12-15T00:53:28.966Z,4
2017-12-15T00:53:33.105Z,4.08
2017-12-15T00:53:37.226Z,4.08
2017-12-15T00:53:41.481Z,4.02
2017-12-15T00:53:45.813Z,4.06
2017-12-15T00:53:50.065Z,3.99
2017-12-15T00:53:54.407Z,3.98
2017-12-15T00:53:58.643Z,4.06
2017-12-15T00:54:03.172Z,4.07
2017-12-15T00:54:07.312Z,4.02
2017-12-15T00:54:11.680Z,4.04
2017-12-15T00:54:15.905Z,4
2017-12-15T00:54:19.931Z,4
2017-12-15T00:54:23.959Z,3.96
2017-12-15T00:54:28.307Z,3.99
2017-12-15T00:54:32.556Z,4.06
2017-12-15T00:54:36.795Z,4
2017-12-15T00:54:41.049Z,3.98
2017-12-15T00:54:45.346Z,3.98
2017-12-15T00:54:49.577Z,4
2017-12-15T00:54:53.722Z,4
2017-12-15T00:54:58.067Z,4.02
2017-12-15T00:55:02.471Z,4.04
2017-12-15T00:55:06.599Z,3.99
2017-12-15T00:55:10.725Z,4
2017-12-15T00:55:14.847Z,4.06
2017-12-15T00:55:19.082Z,4
2017-12-15T00:55:23.432Z,4.04
2017-12-15T00:55:27.784Z,3.98
2017-12-15T00:55:31.916Z,4.07
2017-12-15T00:55:35.944Z,4.02
2017-12-15T00:55:39.959Z,4.02
2017-12-15T00:55:44.222Z,3.98
2017-12-15T00:55:48.502Z,3.99
2017-12-15T00:55:52.854Z,4.04
2017-12-15T00:55:57.114Z,4
2017-12-15T00:56:01.447Z,4.04
2017-12-15T00:56:05.571Z,3.99
2017-12-15T00:56:09.621Z,3.98
2017-12-15T00:56:13.768Z,3.99
2017-12-15T00:56:18.008Z,3.93
2017-12-15T00:56:22.253Z,3.95
2017-12-15T00:56:26.490Z,4
2017-12-15T00:56:30.731Z,4.04
2017-12-15T00:56:34.990Z,4
2017-12-15T00:56:39.132Z,3.96
2017-12-15T00:56:43.488Z,3.92
2017-12-15T00:56:47.628Z,3.99
2017-12-15T00:56:51.865Z,3.98
2017-12-15T00:56:56.209Z,3.93
2017-12-15T00:57:00.447Z,4.02
2017-12-15T00:57:04.575Z,3.95
2017-12-15T00:57:08.918Z,3.96
2017-12-15T00:57:13.162Z,3.92
2017-12-15T00:57:17.508Z,3.98
2017-12-15T00:57:21.642Z,3.95
2017-12-15T00:57:25.931Z,3.96
2017-12-15T00:57:30.077Z,3.95
2017-12-15T00:57:34.314Z,3.98